Time;durP1;ratioP1;P1;durP2;ratioP2;P2;SDS_P1;SDS_P2;PMS_P1;PMS_P2;Temp;Humidity;BMP_temperature;BMP_pressure;BME280_temperature;BME280_humidity;BME280_pressure;Samples;Min_cycle;Max_cycle;Signal;HPM_P1;HPM_P2
2022/06/19 00:01:05;;;;;;;6.50;4.97;;;;;;;17.81;87.67;100251.41;6216203;23;20091;-85
2022/06/19 00:03:34;;;;;;;5.78;5.13;;;;;;;17.80;88.18;100258.28;6190665;23;20040;-85
2022/06/19 00:06:00;;;;;;;6.18;4.80;;;;;;;17.82;87.14;100250.16;6242255;23;20066;-85
2022/06/19 00:08:29;;;;;;;5.93;4.75;;;;;;;17.80;87.15;100247.06;6215321;23;20008;-85
2022/06/19 00:10:55;;;;;;;6.30;5.30;;;;;;;17.70;87.27;100247.16;6243060;23;20401;-86
2022/06/19 00:13:21;;;;;;;5.80;4.78;;;;;;;17.64;88.79;100253.91;6242458;23;20040;-85
2022/06/19 00:15:46;;;;;;;6.07;4.80;;;;;;;17.62;87.99;100245.19;6215962;23;20016;-85
2022/06/19 00:18:12;;;;;;;7.32;4.78;;;;;;;17.65;87.41;100245.00;6242386;23;20000;-85
2022/06/19 00:20:38;;;;;;;5.53;4.70;;;;;;;17.63;87.66;100246.75;6242859;23;20419;-85
2022/06/19 00:23:04;;;;;;;5.10;4.60;;;;;;;17.51;89.20;100240.09;6243038;23;20027;-85
2022/06/19 00:25:29;;;;;;;4.78;4.28;;;;;;;17.49;89.39;100239.81;6216367;23;20016;-85
2022/06/19 00:27:55;;;;;;;5.80;4.53;;;;;;;17.47;89.51;100244.38;6214571;23;20062;-85
2022/06/19 00:30:20;;;;;;;5.10;4.60;;;;;;;17.46;89.16;100237.97;6241990;23;20008;-85
2022/06/19 00:32:46;;;;;;;5.10;4.60;;;;;;;17.38;88.76;100231.19;6215221;23;20019;-85
2022/06/19 00:35:12;;;;;;;7.38;4.05;;;;;;;17.40;89.22;100239.88;6243233;23;20039;-85
2022/06/19 00:37:37;;;;;;;6.68;4.80;;;;;;;17.32;90.67;100230.28;6212943;23;20011;-85
2022/06/19 00:40:05;;;;;;;5.38;4.82;;;;;;;17.33;91.24;100245.88;6243241;23;20012;-85
2022/06/19 00:42:31;;;;;;;6.18;5.53;;;;;;;17.27;91.53;100233.75;6212013;23;20000;-86
2022/06/19 00:44:56;;;;;;;6.40;5.10;;;;;;;17.38;91.20;100238.81;6191790;23;20019;-85
2022/06/19 00:47:26;;;;;;;5.85;5.25;;;;;;;17.39;91.01;100243.94;6241566;23;20036;-85
2022/06/19 00:49:55;;;;;;;5.80;4.75;;;;;;;17.36;90.24;100228.06;6242939;23;20079;-85
2022/06/19 00:52:29;;;;;;;6.93;5.35;;;;;;;17.30;91.52;100229.22;6242701;23;20091;-85
2022/06/19 00:55:11;;;;;;;5.82;4.90;;;;;;;17.24;92.36;100226.28;6215820;23;20442;-85
2022/06/19 00:57:40;;;;;;;4.80;4.22;;;;;;;17.09;92.80;100226.25;6242313;23;20008;-85
2022/06/19 01:00:13;;;;;;;5.13;4.00;;;;;;;16.96;93.17;100227.72;6190557;23;20016;-85
2022/06/19 01:02:40;;;;;;;4.70;4.20;;;;;;;16.92;92.91;100227.13;6231283;22;20012;-87
2022/06/19 01:05:07;;;;;;;5.30;4.13;;;;;;;16.92;92.47;100227.91;6272352;22;20436;-87
2022/06/19 01:07:34;;;;;;;6.20;3.80;;;;;;;16.94;92.59;100219.03;6220935;22;20012;-87
2022/06/19 01:10:00;;;;;;;6.32;4.00;;;;;;;16.85;93.92;100216.28;6246135;22;20472;-87
2022/06/19 01:12:26;;;;;;;6.00;4.00;;;;;;;16.82;92.15;100206.81;6272692;22;20000;-87
2022/06/19 01:14:57;;;;;;;4.70;4.10;;;;;;;16.79;92.50;100208.53;6220007;22;20373;-87
2022/06/19 01:17:22;;;;;;;4.97;4.40;;;;;;;16.68;93.11;100201.91;6245873;22;20011;-86
2022/06/19 01:19:48;;;;;;;7.00;4.45;;;;;;;16.57;95.63;100205.22;6270463;22;20004;-85
2022/06/19 01:22:45;;;;;;;5.43;4.15;;;;;;;16.51;96.49;100203.50;6269465;22;20085;-85
2022/06/19 01:25:17;;;;;;;6.55;4.15;;;;;;;16.53;94.86;100199.00;6220275;22;20092;-85
2022/06/19 01:30:32;;;;;;;5.50;4.28;;;;;;;16.44;95.17;100193.44;6250021;22;20388;-87
2022/06/19 01:32:59;;;;;;;5.43;4.22;;;;;;;16.27;96.84;100184.63;6244797;22;20008;-87
2022/06/19 01:35:27;;;;;;;4.70;3.92;;;;;;;16.33;96.27;100195.97;6246581;22;20068;-86
2022/06/19 01:37:55;;;;;;;5.95;4.07;;;;;;;16.25;97.92;100194.75;6244757;22;20015;-84
2022/06/19 01:40:29;;;;;;;5.45;4.43;;;;;;;16.15;99.77;100188.41;6246466;22;20376;-84
2022/06/19 01:42:55;;;;;;;4.57;4.15;;;;;;;16.16;99.00;100195.56;6246007;22;20086;-84
2022/06/19 01:45:21;;;;;;;5.22;4.53;;;;;;;16.24;98.45;100190.41;6273463;22;20035;-84
2022/06/19 01:47:47;;;;;;;5.45;4.30;;;;;;;16.19;98.39;100180.63;6245576;22;20008;-84
2022/06/19 01:50:22;;;;;;;6.57;4.00;;;;;;;16.25;97.79;100186.38;6272455;22;20012;-84
2022/06/19 01:52:51;;;;;;;6.55;4.60;;;;;;;16.23;97.65;100186.03;6273028;22;20012;-83
2022/06/19 01:55:18;;;;;;;5.78;4.82;;;;;;;16.19;97.54;100186.22;6273218;22;20518;-84
2022/06/19 01:57:47;;;;;;;5.82;4.82;;;;;;;16.14;98.17;100183.28;6246698;22;20008;-86
2022/06/19 02:00:20;;;;;;;4.68;4.22;;;;;;;16.12;97.40;100191.38;6246115;22;20011;-85
2022/06/19 02:02:49;;;;;;;6.15;4.40;;;;;;;16.05;98.11;100192.50;6225311;23;20027;-85
2022/06/19 02:05:15;;;;;;;5.90;4.78;;;;;;;16.08;98.76;100179.56;6242729;23;20023;-85
2022/06/19 02:07:42;;;;;;;5.40;4.32;;;;;;;16.10;97.26;100191.06;6215517;23;20008;-85
2022/06/19 02:10:08;;;;;;;4.95;4.28;;;;;;;16.07;97.69;100187.19;6242435;23;20023;-84
2022/06/19 02:12:33;;;;;;;5.25;4.28;;;;;;;16.01;99.04;100182.72;6242290;23;20016;-85
2022/06/19 02:15:02;;;;;;;6.55;4.43;;;;;;;15.99;98.62;100190.78;6215798;23;20008;-84
2022/06/19 02:17:35;;;;;;;5.68;4.30;;;;;;;15.97;98.96;100182.09;6215391;23;20414;-82
2022/06/19 02:20:00;;;;;;;5.10;4.60;;;;;;;16.00;98.68;100189.53;6215565;23;20032;-81
2022/06/19 02:22:26;;;;;;;5.78;4.40;;;;;;;15.98;98.19;100178.03;6243905;23;20062;-82
2022/06/19 02:24:51;;;;;;;5.43;4.65;;;;;;;15.92;98.28;100182.72;6217269;23;20015;-84
2022/06/19 02:27:17;;;;;;;5.10;4.55;;;;;;;15.93;98.20;100190.66;6244992;23;20019;-84
2022/06/19 02:29:45;;;;;;;4.97;4.38;;;;;;;15.85;99.44;100184.59;6217825;23;20008;-84
2022/06/19 02:32:23;;;;;;;7.68;4.57;;;;;;;15.83;99.20;100184.31;6217306;23;20493;-83
2022/06/19 02:34:50;;;;;;;5.78;4.47;;;;;;;15.83;98.72;100186.31;6217948;23;20012;-83
2022/06/19 02:37:21;;;;;;;5.10;4.60;;;;;;;15.88;99.48;100190.50;6244561;23;20039;-86
2022/06/19 02:40:31;;;;;;;8.15;4.80;;;;;;;15.91;99.93;100183.97;6243515;23;20020;-86
2022/06/19 02:42:57;;;;;;;6.35;5.10;;;;;;;15.81;99.69;100175.59;6192771;23;20020;-87
2022/06/19 02:45:29;;;;;;;5.75;5.25;;;;;;;15.83;100.00;100170.31;6217743;23;20438;-87
2022/06/19 02:47:56;;;;;;;6.07;5.03;;;;;;;15.92;98.90;100179.94;6243686;23;20019;-87
2022/06/19 02:50:29;;;;;;;5.80;5.20;;;;;;;15.88;98.78;100174.50;6243778;23;20011;-88
2022/06/19 02:52:54;;;;;;;6.40;5.35;;;;;;;15.88;98.33;100173.72;6217069;23;20023;-87
2022/06/19 02:55:21;;;;;;;6.22;5.53;;;;;;;15.91;98.00;100172.78;6244851;23;20009;-87
2022/06/19 02:57:47;;;;;;;6.13;5.30;;;;;;;15.89;98.44;100170.47;6216358;23;20422;-86
2022/06/19 03:00:20;;;;;;;6.20;5.60;;;;;;;15.96;100.00;100172.16;6216880;23;20016;-87
2022/06/19 03:02:48;;;;;;;10.25;6.07;;;;;;;15.99;99.66;100163.59;6243498;22;20464;-87
2022/06/19 03:05:18;;;;;;;6.05;5.40;;;;;;;16.02;98.76;100159.06;6216808;23;20043;-87
2022/06/19 03:07:44;;;;;;;8.27;5.60;;;;;;;16.02;98.93;100162.63;6244455;23;20012;-86
2022/06/19 03:10:10;;;;;;;5.90;5.30;;;;;;;16.06;98.65;100168.06;6242936;23;20014;-87
2022/06/19 03:12:35;;;;;;;8.05;6.10;;;;;;;16.04;98.87;100171.34;6244074;23;20016;-87
2022/06/19 03:15:01;;;;;;;8.52;5.60;;;;;;;16.04;99.06;100176.16;6243826;23;20493;-87
2022/06/19 03:17:26;;;;;;;8.45;5.43;;;;;;;16.01;98.50;100168.72;6243830;23;20016;-85
2022/06/19 03:19:52;;;;;;;6.07;5.47;;;;;;;16.05;99.75;100172.13;6244062;23;20500;-87
2022/06/19 03:22:18;;;;;;;6.40;5.75;;;;;;;16.09;98.61;100178.34;6243884;23;20024;-87
2022/06/19 03:24:44;;;;;;;6.32;5.72;;;;;;;16.14;98.98;100169.28;6243765;23;20083;-86
2022/06/19 03:27:11;;;;;;;6.95;5.93;;;;;;;16.22;98.86;100170.50;6242703;23;20010;-86
2022/06/19 03:29:37;;;;;;;8.07;6.13;;;;;;;16.17;98.77;100169.13;6243592;23;20008;-87
2022/06/19 03:32:04;;;;;;;6.75;5.93;;;;;;;16.14;99.04;100174.88;6216546;23;20020;-87
2022/06/19 03:34:31;;;;;;;6.85;6.03;;;;;;;16.17;98.21;100180.34;6217271;23;20008;-84
2022/06/19 03:36:56;;;;;;;7.50;6.30;;;;;;;16.14;98.20;100169.28;6216420;23;20008;-83
2022/06/19 03:39:24;;;;;;;10.10;6.13;;;;;;;16.16;98.80;100166.81;6190078;23;20012;-83
2022/06/19 03:41:50;;;;;;;7.80;5.88;;;;;;;16.21;99.74;100168.97;6242770;23;20050;-83
2022/06/19 03:44:15;;;;;;;7.47;5.28;;;;;;;16.25;99.89;100170.34;6240659;23;20082;-83
2022/06/19 03:46:41;;;;;;;6.80;5.80;;;;;;;16.20;99.85;100161.81;6237077;23;20025;-83
2022/06/19 03:49:08;;;;;;;7.10;5.45;;;;;;;16.23;99.67;100161.63;6216128;23;20008;-82
2022/06/19 03:51:34;;;;;;;6.38;5.38;;;;;;;16.27;99.42;100155.88;6190831;23;20004;-82
2022/06/19 03:53:59;;;;;;;8.77;5.80;;;;;;;16.30;100.00;100166.09;6242303;23;20019;-87
2022/06/19 03:56:31;;;;;;;6.38;5.78;;;;;;;16.27;100.00;100161.47;6216589;23;20343;-87
2022/06/19 03:58:57;;;;;;;7.55;5.60;;;;;;;16.25;100.00;100155.56;6216330;23;20379;-88
2022/06/19 04:01:31;;;;;;;6.78;5.47;;;;;;;16.31;99.70;100162.06;6242949;22;20439;-87
2022/06/19 04:03:57;;;;;;;7.32;5.40;;;;;;;16.27;99.48;100144.66;6216527;23;20016;-88
2022/06/19 04:06:27;;;;;;;6.25;5.25;;;;;;;16.31;99.10;100148.84;6243284;23;20397;-87
2022/06/19 04:08:54;;;;;;;6.00;5.18;;;;;;;16.35;99.26;100145.88;6243592;23;20016;-88
2022/06/19 04:11:21;;;;;;;6.72;5.88;;;;;;;16.40;97.54;100150.84;6216366;23;20007;-87
2022/06/19 04:13:47;;;;;;;7.25;5.80;;;;;;;16.47;96.73;100147.69;6216905;23;20016;-88
2022/06/19 04:16:21;;;;;;;7.55;6.13;;;;;;;16.57;95.92;100146.44;6216385;23;20442;-87
2022/06/19 04:18:48;;;;;;;7.05;5.80;;;;;;;16.63;95.61;100147.31;6243759;23;20054;-88
2022/06/19 04:21:16;;;;;;;7.57;6.13;;;;;;;16.63;95.06;100155.72;6243589;23;20472;-87
2022/06/19 04:23:42;;;;;;;6.28;5.32;;;;;;;16.63;94.94;100149.31;6244642;23;20016;-87
2022/06/19 04:26:12;;;;;;;6.47;5.75;;;;;;;16.70;94.62;100152.53;6243290;23;20016;-87
2022/06/19 04:28:38;;;;;;;6.20;5.57;;;;;;;16.75;94.57;100149.09;6217307;23;20082;-88
2022/06/19 04:31:04;;;;;;;7.90;5.65;;;;;;;16.79;93.86;100166.50;6243003;23;20438;-83
2022/06/19 04:33:32;;;;;;;8.32;6.03;;;;;;;16.85;93.19;100160.25;6216391;23;20016;-86
2022/06/19 04:35:58;;;;;;;6.97;5.70;;;;;;;16.91;92.19;100163.94;6243552;23;20442;-86
2022/06/19 04:38:23;;;;;;;7.10;6.38;;;;;;;16.99;91.97;100151.88;6243444;23;20004;-87
2022/06/19 04:40:50;;;;;;;6.72;5.43;;;;;;;17.08;91.50;100153.84;6216771;23;20095;-88
2022/06/19 04:43:16;;;;;;;6.28;5.68;;;;;;;17.14;90.30;100149.94;6241836;23;20449;-88
2022/06/19 04:45:41;;;;;;;7.72;5.93;;;;;;;17.18;90.59;100152.53;6242806;23;20036;-88
2022/06/19 04:48:08;;;;;;;7.18;6.32;;;;;;;17.23;90.47;100146.25;6242709;23;20071;-87
2022/06/19 04:50:33;;;;;;;7.13;6.00;;;;;;;17.27;90.37;100158.03;6243199;23;20050;-87
2022/06/19 04:52:59;;;;;;;6.55;5.85;;;;;;;17.22;90.91;100145.50;6242674;23;20410;-88
2022/06/19 04:55:24;;;;;;;6.50;5.90;;;;;;;17.33;90.38;100144.94;6242660;23;20008;-88
2022/06/19 04:57:50;;;;;;;6.53;5.85;;;;;;;17.35;90.42;100138.84;6243480;23;20012;-85
2022/06/19 05:00:17;;;;;;;6.70;6.10;;;;;;;17.39;90.76;100137.38;6241920;23;20011;-85
2022/06/19 05:02:43;;;;;;;6.90;6.20;;;;;;;17.46;90.45;100148.25;6190947;23;20043;-86
2022/06/19 05:05:14;;;;;;;10.10;5.93;;;;;;;17.51;90.72;100133.53;6243223;23;20498;-86
2022/06/19 05:07:40;;;;;;;7.70;6.50;;;;;;;17.56;91.24;100135.66;6215427;23;20057;-82
2022/06/19 05:10:06;;;;;;;6.95;6.22;;;;;;;17.68;90.05;100126.22;6242665;23;20016;-85
2022/06/19 05:12:32;;;;;;;6.60;5.88;;;;;;;17.80;89.50;100132.00;6242290;23;20012;-86
2022/06/19 05:14:57;;;;;;;7.88;5.90;;;;;;;17.82;86.94;100123.91;6213976;23;20127;-88
2022/06/19 05:17:23;;;;;;;7.13;6.28;;;;;;;17.77;86.97;100122.53;6243037;23;20448;-88
2022/06/19 05:19:48;;;;;;;6.50;5.85;;;;;;;17.92;86.64;100122.53;6215030;23;20532;-89
2022/06/19 05:22:14;;;;;;;6.25;5.55;;;;;;;17.96;86.58;100114.69;6242239;23;20020;-89
2022/06/19 05:24:39;;;;;;;6.00;5.40;;;;;;;18.08;85.49;100119.22;6242959;23;20050;-87
2022/06/19 05:27:09;;;;;;;6.97;5.90;;;;;;;18.16;85.17;100125.97;6216093;23;20468;-88
2022/06/19 05:29:35;;;;;;;6.30;5.30;;;;;;;18.22;85.12;100126.06;6242222;23;20024;-88
2022/06/19 05:32:04;;;;;;;6.13;5.63;;;;;;;18.33;84.27;100124.19;6214842;23;20008;-88
2022/06/19 05:34:30;;;;;;;6.18;5.18;;;;;;;18.45;82.06;100123.09;6241587;23;20012;-88
2022/06/19 05:36:56;;;;;;;5.93;5.32;;;;;;;18.66;82.52;100128.78;6215821;23;20489;-87
2022/06/19 05:39:21;;;;;;;7.30;5.60;;;;;;;18.79;82.48;100132.03;6242176;23;20058;-87
2022/06/19 05:41:47;;;;;;;7.35;5.35;;;;;;;18.93;82.41;100136.78;6241824;23;20032;-87
2022/06/19 05:44:12;;;;;;;6.97;5.05;;;;;;;19.04;80.02;100131.31;6241800;23;20047;-88
2022/06/19 05:46:38;;;;;;;6.38;5.38;;;;;;;19.17;80.13;100117.66;6241950;23;20023;-87
2022/06/19 05:49:03;;;;;;;8.52;5.50;;;;;;;19.39;79.12;100134.00;6240229;23;20017;-83
2022/06/19 05:51:30;;;;;;;6.32;5.10;;;;;;;19.53;78.66;100142.38;6241438;23;20000;-83
2022/06/19 05:53:58;;;;;;;6.78;5.55;;;;;;;19.68;78.02;100138.69;6214812;23;20012;-83
2022/06/19 05:56:25;;;;;;;5.85;5.00;;;;;;;19.91;77.87;100137.59;6243915;23;20020;-83
2022/06/19 05:58:50;;;;;;;5.50;5.00;;;;;;;20.17;75.79;100152.41;6190722;23;20403;-83
2022/06/19 06:01:18;;;;;;;5.28;4.78;;;;;;;20.28;76.13;100149.69;6241012;22;20054;-83
2022/06/19 06:03:43;;;;;;;7.22;5.18;;;;;;;20.44;76.37;100156.72;6243043;23;20012;-82
2022/06/19 06:06:17;;;;;;;5.75;5.15;;;;;;;20.76;76.02;100151.78;6242406;23;20012;-82
2022/06/19 06:08:43;;;;;;;7.35;5.25;;;;;;;21.05;74.30;100154.25;6242847;23;20015;-86
2022/06/19 06:11:09;;;;;;;5.72;4.82;;;;;;;21.24;73.45;100151.78;6190930;23;20043;-86
2022/06/19 06:13:34;;;;;;;6.18;4.70;;;;;;;21.31;72.03;100145.66;6166708;23;20020;-86
2022/06/19 06:16:00;;;;;;;6.55;4.93;;;;;;;21.52;72.12;100160.31;6242265;23;20012;-87
2022/06/19 06:18:26;;;;;;;6.50;5.03;;;;;;;21.63;71.53;100146.25;6215784;23;20008;-87
2022/06/19 06:21:04;;;;;;;6.00;4.68;;;;;;;21.75;70.59;100144.97;6242971;23;20050;-87
2022/06/19 06:23:30;;;;;;;5.43;4.70;;;;;;;21.77;70.33;100148.03;6216219;23;20489;-87
2022/06/19 06:26:04;;;;;;;5.30;4.80;;;;;;;22.02;70.43;100151.94;6241828;23;20004;-86
2022/06/19 06:28:31;;;;;;;6.65;4.90;;;;;;;22.20;68.85;100137.31;6242118;23;20050;-88
2022/06/19 06:30:57;;;;;;;5.68;5.07;;;;;;;22.26;68.66;100143.72;6241750;23;20019;-88
2022/06/19 06:33:23;;;;;;;5.45;4.75;;;;;;;22.55;67.80;100142.38;6240121;23;20004;-88
2022/06/19 06:35:48;;;;;;;6.22;4.75;;;;;;;22.73;66.65;100147.50;6242977;23;20034;-87
2022/06/19 06:38:14;;;;;;;5.90;4.85;;;;;;;22.80;67.06;100158.28;6190735;23;20039;-87
2022/06/19 06:40:39;;;;;;;5.15;4.65;;;;;;;22.75;67.17;100162.66;6242452;23;20012;-88
2022/06/19 06:43:05;;;;;;;6.97;4.47;;;;;;;22.80;65.72;100149.81;6215594;23;20723;-83
2022/06/19 06:45:31;;;;;;;5.25;4.72;;;;;;;23.05;64.72;100145.09;6243127;23;20004;-83
2022/06/19 06:47:56;;;;;;;5.18;4.50;;;;;;;23.45;64.06;100149.28;6215183;23;20521;-84
2022/06/19 06:50:22;;;;;;;7.13;4.22;;;;;;;23.63;62.46;100143.75;6214821;23;20012;-83
2022/06/19 06:52:48;;;;;;;6.07;4.80;;;;;;;23.59;62.55;100145.34;6242861;23;20012;-82
2022/06/19 06:55:14;;;;;;;7.38;4.43;;;;;;;23.68;61.93;100145.03;6242335;23;20012;-83
2022/06/19 06:57:39;;;;;;;6.38;4.47;;;;;;;23.68;62.01;100142.97;6242459;23;20006;-82
2022/06/19 07:00:06;;;;;;;5.45;4.50;;;;;;;23.50;62.02;100143.56;6242880;23;20027;-83
2022/06/19 07:02:32;;;;;;;5.07;4.57;;;;;;;23.55;61.55;100144.84;6214922;23;20016;-83
2022/06/19 07:04:57;;;;;;;5.78;4.50;;;;;;;23.78;60.87;100154.72;6240743;23;20015;-83
2022/06/19 07:07:23;;;;;;;5.40;4.63;;;;;;;23.63;60.28;100148.66;6243730;23;20074;-83
2022/06/19 07:09:48;;;;;;;6.70;4.60;;;;;;;24.02;60.59;100143.47;6243002;23;20004;-83
2022/06/19 07:12:14;;;;;;;5.55;4.75;;;;;;;24.33;59.93;100144.25;6243058;23;20043;-84
2022/06/19 07:14:39;;;;;;;4.82;4.30;;;;;;;24.69;58.11;100145.69;6245629;23;20095;-81
2022/06/19 07:17:05;;;;;;;4.65;4.13;;;;;;;24.65;57.14;100144.44;6218695;23;20012;-80
2022/06/19 07:19:31;;;;;;;7.15;4.80;;;;;;;24.83;57.32;100138.06;6216562;23;20027;-81
2022/06/19 07:21:57;;;;;;;7.88;3.90;;;;;;;24.99;54.24;100140.72;6214635;23;20030;-82
2022/06/19 07:24:23;;;;;;;5.97;3.88;;;;;;;25.07;54.44;100141.66;6240942;23;20008;-84
2022/06/19 07:26:48;;;;;;;5.15;4.20;;;;;;;25.25;54.14;100136.53;6244118;23;20035;-84
2022/06/19 07:29:14;;;;;;;5.75;4.20;;;;;;;25.44;52.51;100134.44;6216259;23;20434;-84
2022/06/19 07:31:39;;;;;;;4.60;3.85;;;;;;;25.49;53.77;100127.94;6244381;23;20087;-84
2022/06/19 07:34:05;;;;;;;5.68;4.18;;;;;;;25.47;52.58;100128.47;6243552;23;20015;-84
2022/06/19 07:36:31;;;;;;;4.25;3.78;;;;;;;25.63;52.49;100123.88;6217588;23;20497;-84
2022/06/19 07:38:57;;;;;;;5.47;4.00;;;;;;;25.66;50.43;100128.47;6242085;23;20009;-83
2022/06/19 07:41:23;;;;;;;5.30;4.00;;;;;;;26.04;50.70;100134.09;6188302;23;20107;-84
2022/06/19 07:43:50;;;;;;;6.95;4.20;;;;;;;26.27;48.26;100132.41;6241524;23;20394;-83
2022/06/19 07:46:17;;;;;;;5.03;3.85;;;;;;;26.39;48.35;100125.97;6215911;23;20069;-84
2022/06/19 07:51:27;;;;;;;6.45;3.60;;;;;;;26.13;46.51;100123.06;6218544;23;20502;-84
2022/06/19 07:53:52;;;;;;;4.35;3.50;;;;;;;26.30;47.01;100119.94;6235991;23;20012;-84
2022/06/19 07:56:18;;;;;;;6.05;3.42;;;;;;;26.60;46.50;100128.19;6238407;23;20022;-85
2022/06/19 07:58:44;;;;;;;4.93;3.88;;;;;;;26.24;46.02;100137.13;6241506;23;20043;-85
2022/06/19 08:01:09;;;;;;;3.92;3.53;;;;;;;26.03;45.72;100132.53;6211143;22;20004;-84
2022/06/19 08:03:35;;;;;;;4.85;3.42;;;;;;;26.32;44.39;100125.88;6240534;23;20012;-85
2022/06/19 08:06:01;;;;;;;3.90;3.50;;;;;;;26.55;44.49;100126.97;6240806;23;20507;-84
2022/06/19 08:08:29;;;;;;;7.35;3.60;;;;;;;26.93;43.41;100126.78;6241684;23;20014;-84
2022/06/19 08:10:56;;;;;;;6.38;3.38;;;;;;;27.22;42.40;100131.31;6214596;23;20015;-85
2022/06/19 08:13:24;;;;;;;7.30;3.40;;;;;;;27.15;40.67;100132.78;6240154;23;20022;-84
2022/06/19 08:15:51;;;;;;;4.13;3.45;;;;;;;26.98;39.55;100123.81;6213013;23;20026;-85
2022/06/19 08:18:18;;;;;;;3.42;3.13;;;;;;;27.20;40.77;100123.34;6211749;23;20004;-81
2022/06/19 08:20:45;;;;;;;4.88;3.25;;;;;;;27.33;40.37;100120.47;6186860;23;20020;-84
2022/06/19 08:23:11;;;;;;;3.97;3.40;;;;;;;27.51;40.60;100113.09;6211799;23;20422;-85
2022/06/19 08:25:37;;;;;;;5.00;3.60;;;;;;;27.46;39.69;100116.06;6213169;23;20057;-85
2022/06/19 08:28:03;;;;;;;5.45;3.70;;;;;;;27.39;40.89;100114.63;6239924;23;20008;-85
2022/06/19 08:30:32;;;;;;;4.88;3.20;;;;;;;27.36;40.02;100105.13;6241191;23;20040;-85
2022/06/19 08:32:58;;;;;;;4.32;3.33;;;;;;;27.56;39.68;100117.91;6240551;23;20492;-85
2022/06/19 08:35:23;;;;;;;4.57;3.50;;;;;;;27.41;39.31;100120.56;6241337;23;20009;-85
2022/06/19 08:37:51;;;;;;;6.10;3.60;;;;;;;27.13;40.51;100124.03;6214095;23;20032;-84
2022/06/19 08:40:26;;;;;;;6.80;3.45;;;;;;;27.07;39.85;100114.84;6240635;23;20009;-83
2022/06/19 08:42:56;;;;;;;3.92;3.35;;;;;;;27.46;40.32;100122.50;6241515;23;20016;-82
2022/06/19 08:45:45;;;;;;;4.60;3.60;;;;;;;27.35;40.34;100120.69;6240953;23;20032;-82
2022/06/19 08:48:25;;;;;;;3.70;3.30;;;;;;;27.14;39.25;100119.84;6243104;23;20626;-82
2022/06/19 08:51:36;;;;;;;5.22;3.33;;;;;;;27.31;40.62;100122.34;6192253;23;20012;-82
2022/06/19 08:54:07;;;;;;;5.07;3.47;;;;;;;27.31;40.69;100123.09;6199949;23;20488;-82
2022/06/19 08:56:55;;;;;;;4.72;3.50;;;;;;;27.62;39.35;100124.22;6243477;23;20012;-85
2022/06/19 08:59:47;;;;;;;6.47;3.47;;;;;;;27.77;40.21;100130.09;6225901;23;20402;-85
2022/06/19 09:02:26;;;;;;;5.00;3.60;;;;;;;28.11;39.32;100129.28;6242480;22;20110;-85
2022/06/19 09:08:09;;;;;;;5.63;3.60;;;;;;;28.44;38.32;100110.53;6243701;23;20516;-85
2022/06/19 09:11:26;;;;;;;3.95;3.35;;;;;;;28.28;38.14;100112.50;6243314;23;20016;-84
2022/06/19 09:14:14;;;;;;;5.85;3.33;;;;;;;28.72;37.67;100104.84;6071235;23;20084;-85
2022/06/19 09:16:48;;;;;;;6.10;3.30;;;;;;;28.78;37.26;100102.59;6096694;23;20104;-85
2022/06/19 09:19:16;;;;;;;5.47;3.60;;;;;;;28.47;35.82;100087.34;6214200;23;20012;-83
2022/06/19 09:21:54;;;;;;;5.10;3.25;;;;;;;28.57;37.16;100091.22;6216520;23;20469;-83
2022/06/19 09:24:37;;;;;;;5.40;3.38;;;;;;;28.54;36.89;100103.00;6243002;23;20019;-83
2022/06/19 09:27:02;;;;;;;5.97;3.40;;;;;;;28.67;37.37;100102.91;6191387;23;20008;-82
2022/06/19 09:29:39;;;;;;;4.20;3.20;;;;;;;28.93;37.41;100121.91;6242218;23;20018;-83
2022/06/19 09:32:16;;;;;;;4.13;3.45;;;;;;;29.01;36.38;100105.56;6215858;23;20091;-83
2022/06/19 09:34:52;;;;;;;3.67;3.08;;;;;;;28.29;36.47;100099.78;6243052;23;20012;-85
2022/06/19 09:37:22;;;;;;;4.10;3.53;;;;;;;28.01;38.04;100105.41;6242896;23;20508;-82
2022/06/19 09:40:07;;;;;;;4.10;3.33;;;;;;;28.15;37.92;100106.88;6216290;23;20016;-83
2022/06/19 09:42:34;;;;;;;4.47;3.17;;;;;;;28.27;38.03;100088.91;6216450;23;20012;-83
2022/06/19 09:44:59;;;;;;;6.03;3.10;;;;;;;28.26;38.39;100106.63;6214609;23;20422;-83
2022/06/19 09:47:34;;;;;;;4.30;3.53;;;;;;;28.64;36.51;100099.06;6243136;23;20009;-83
2022/06/19 09:50:05;;;;;;;4.53;3.30;;;;;;;28.94;36.34;100100.59;6216002;23;20066;-83
2022/06/19 09:52:50;;;;;;;5.17;3.47;;;;;;;29.04;36.51;100087.28;6216251;23;20018;-83
2022/06/19 09:55:27;;;;;;;4.43;3.35;;;;;;;28.64;36.03;100072.63;6242633;23;20130;-83
2022/06/19 09:58:02;;;;;;;4.40;3.30;;;;;;;28.55;37.00;100071.03;6240715;23;20579;-83
2022/06/19 10:00:29;;;;;;;4.43;3.20;;;;;;;28.85;35.99;100070.47;6239981;23;20015;-83
2022/06/19 10:03:00;;;;;;;3.72;3.20;;;;;;;29.10;35.86;100067.91;6213914;23;20027;-83
2022/06/19 10:05:41;;;;;;;4.63;3.50;;;;;;;28.64;35.70;100072.63;6214035;23;20442;-82
2022/06/19 10:08:18;;;;;;;4.28;3.55;;;;;;;28.27;36.38;100071.81;6215621;23;20091;-83
2022/06/19 10:10:49;;;;;;;4.80;3.10;;;;;;;28.38;37.29;100056.50;6214453;23;20085;-83
2022/06/19 10:13:20;;;;;;;8.88;3.58;;;;;;;28.96;36.29;100060.81;6214075;23;20020;-83
2022/06/19 10:15:47;;;;;;;5.00;3.08;;;;;;;29.20;35.87;100054.59;6215063;23;20012;-85
2022/06/19 10:18:32;;;;;;;4.72;3.00;;;;;;;29.57;34.31;100056.06;6213511;23;20480;-86
2022/06/19 10:20:57;;;;;;;5.05;3.30;;;;;;;29.44;33.61;100061.97;6213790;23;20078;-85
2022/06/19 10:23:35;;;;;;;5.32;3.35;;;;;;;29.37;32.78;100060.59;6240423;23;20039;-86
2022/06/19 10:26:08;;;;;;;4.13;3.08;;;;;;;29.40;33.96;100062.31;6214987;23;20016;-85
2022/06/19 10:29:02;;;;;;;4.30;3.50;;;;;;;29.37;34.13;100069.16;6213815;23;20346;-84
2022/06/19 10:32:10;;;;;;;7.35;3.53;;;;;;;29.41;34.83;100051.66;6214987;23;20008;-86
2022/06/19 10:34:53;;;;;;;4.95;3.38;;;;;;;29.17;35.01;100058.59;6190537;23;20048;-85
2022/06/19 10:37:43;;;;;;;3.63;3.20;;;;;;;28.86;35.38;100043.47;6241326;23;20016;-85
2022/06/19 10:40:21;;;;;;;5.70;3.60;;;;;;;28.81;35.63;100057.88;6240240;23;20027;-85
2022/06/19 10:43:04;;;;;;;4.53;3.40;;;;;;;28.65;36.10;100060.66;6243296;23;20386;-84
2022/06/19 10:45:35;;;;;;;5.20;3.92;;;;;;;28.39;35.82;100051.56;6242730;23;20015;-85
2022/06/19 10:48:19;;;;;;;6.03;3.20;;;;;;;28.84;34.56;100051.03;6243458;23;20012;-85
2022/06/19 10:51:05;;;;;;;9.02;3.85;;;;;;;29.15;34.68;100041.28;6242888;23;20016;-85
2022/06/19 10:53:34;;;;;;;3.80;3.40;;;;;;;29.25;33.42;100042.25;6243209;23;20035;-85
2022/06/19 10:56:28;;;;;;;5.78;3.30;;;;;;;28.97;34.04;100036.63;6242645;23;20021;-85
2022/06/19 10:58:54;;;;;;;4.03;3.25;;;;;;;28.87;35.30;100030.72;6216010;23;20016;-85
2022/06/19 11:04:12;;;;;;;4.38;3.97;;;;;;;28.97;34.86;100030.94;6218274;23;20012;-85
2022/06/19 11:06:49;;;;;;;4.65;3.50;;;;;;;29.11;35.23;100023.75;6242059;23;20016;-85
2022/06/19 11:09:26;;;;;;;5.70;3.80;;;;;;;29.04;33.98;100027.31;6212950;23;20016;-85
2022/06/19 11:11:54;;;;;;;4.05;3.42;;;;;;;28.61;33.69;100023.16;6215112;23;20330;-85
2022/06/19 11:14:36;;;;;;;5.00;3.45;;;;;;;28.67;35.05;100012.31;6213292;23;20015;-85
2022/06/19 11:17:07;;;;;;;7.28;3.60;;;;;;;28.84;34.67;100016.78;6243305;23;20068;-85
2022/06/19 11:19:51;;;;;;;5.07;3.60;;;;;;;28.94;35.80;100003.50;6243917;23;20012;-85
2022/06/19 11:22:33;;;;;;;3.50;3.20;;;;;;;29.41;35.06;100011.66;6242232;23;20341;-85
2022/06/19 11:25:18;;;;;;;6.13;3.50;;;;;;;29.58;34.02;100004.06;6216781;23;20066;-85
2022/06/19 11:27:53;;;;;;;6.53;3.78;;;;;;;29.25;33.86;99998.63;6243928;23;20066;-85
2022/06/19 11:30:34;;;;;;;5.72;3.50;;;;;;;29.60;34.54;99989.19;6190901;23;20069;-85
2022/06/19 11:33:02;;;;;;;4.43;3.20;;;;;;;29.57;33.35;99991.09;6217193;23;20446;-83
2022/06/19 11:35:36;;;;;;;4.35;3.28;;;;;;;29.75;33.21;99982.72;6216748;23;20004;-83
2022/06/19 11:38:02;;;;;;;3.85;3.17;;;;;;;29.43;33.71;99963.28;6243775;23;20016;-83
2022/06/19 11:40:31;;;;;;;5.25;3.60;;;;;;;29.19;34.28;99979.59;6217327;23;20482;-83
2022/06/19 11:42:59;;;;;;;4.95;3.28;;;;;;;29.39;34.46;99977.94;6217039;23;20039;-83
2022/06/19 11:45:36;;;;;;;3.33;3.00;;;;;;;29.53;34.32;99984.22;6243425;23;20507;-83
2022/06/19 11:48:10;;;;;;;4.22;3.17;;;;;;;29.44;33.20;99976.22;6216736;23;20055;-83